Terminal Aerodrome Forecast
Issued by NWS Cleveland, OH

Home | Current Version | Previous Version | Graphics & Text | Print | Product List | Glossary On
Versions: 1 2 3 4 5 6 7 8 9 10 11 12 13 14 15 16 17 18 19 20
317
FTUS41 KCLE 031120
TAFERI
TAF
KERI 031120Z 0312/0412 17020G35KT P6SM SHRA OVC025
     FM031300 18020G35KT P6SM OVC090
     FM031600 21020G30KT P6SM SCT035
     FM040100 25010G20KT P6SM -SHSN OVC035
     FM040700 25010G20KT 6SM -SHSN OVC015=

USA.gov is the U.S. government's official web portal to all federal, state and local government web resources and services.